createdAt,value
2023-04-03T00:01:13.888Z,40.24
2023-04-03T00:04:19.706Z,40.12
2023-04-03T00:07:23.652Z,40.61
2023-04-03T00:10:27.920Z,39.93
2023-04-03T00:13:32.468Z,41.05
2023-04-03T00:16:36.798Z,41.01
2023-04-03T00:19:41.177Z,40.43
2023-04-03T00:22:45.954Z,40.25
2023-04-03T00:25:50.261Z,40.38
2023-04-03T00:28:54.722Z,39.70
2023-04-03T00:31:58.626Z,39.96
2023-04-03T00:35:02.472Z,39.27
2023-04-03T00:38:06.940Z,39.52
2023-04-03T00:41:11.555Z,38.85
2023-04-03T00:44:24.455Z,38.79
2023-04-03T00:47:29.484Z,39.47
2023-04-03T00:50:41.083Z,38.60
2023-04-03T00:54:07.377Z,38.70
2023-04-03T00:57:13.656Z,38.83
2023-04-03T01:00:21.885Z,37.91
2023-04-03T01:03:26.969Z,37.57
2023-04-03T01:06:37.552Z,37.13
2023-04-03T01:09:47.174Z,36.73
2023-04-03T01:12:52.974Z,36.56
2023-04-03T01:15:57.885Z,36.15
2023-04-03T01:19:03.751Z,36.24
2023-04-03T01:22:28.248Z,35.91
2023-04-03T01:25:32.702Z,35.77
2023-04-03T01:28:38.364Z,36.50
2023-04-03T01:31:45.970Z,35.51
2023-04-03T01:34:51.251Z,35.77
2023-04-03T01:37:55.693Z,35.33
2023-04-03T01:40:59.952Z,36.36
2023-04-03T01:44:05.687Z,36.29
2023-04-03T01:47:10.815Z,36.74
2023-04-03T01:50:17.024Z,35.70
2023-04-03T01:53:22.385Z,35.52
2023-04-03T01:56:26.850Z,35.05
2023-04-03T01:59:31.365Z,35.40
2023-04-03T02:02:35.992Z,34.89
2023-04-03T02:05:40.825Z,36.11
2023-04-03T02:08:45.130Z,36.25
2023-04-03T02:11:49.871Z,35.41
2023-04-03T02:14:54.593Z,36.08
2023-04-03T02:17:59.167Z,36.33
2023-04-03T02:21:06.115Z,35.51
2023-04-03T02:24:10.610Z,35.19
2023-04-03T02:27:15.331Z,35.83
2023-04-03T02:30:19.956Z,35.24
2023-04-03T02:33:24.347Z,36.06
2023-04-03T02:36:28.629Z,35.28
2023-04-03T02:39:37.276Z,35.18
2023-04-03T02:42:41.365Z,35.24
2023-04-03T02:45:45.665Z,34.67
2023-04-03T02:48:53.384Z,34.70
2023-04-03T02:51:58.153Z,34.23
2023-04-03T02:55:02.572Z,34.71
2023-04-03T02:58:09.593Z,34.53
2023-04-03T03:01:14.542Z,34.54
2023-04-03T03:04:19.704Z,34.36
2023-04-03T03:07:23.644Z,34.17
2023-04-03T03:10:27.645Z,34.17
2023-04-03T03:13:33.318Z,34.38
2023-04-03T03:16:40.144Z,34.02
2023-04-03T03:19:45.264Z,34.11
2023-04-03T03:22:51.539Z,34.11
2023-04-03T03:26:00.412Z,33.56
2023-04-03T03:29:04.827Z,33.44
2023-04-03T03:32:09.874Z,33.61
2023-04-03T03:35:13.820Z,33.90
2023-04-03T03:38:17.792Z,33.39
2023-04-03T03:41:22.465Z,33.74
2023-04-03T03:44:26.508Z,33.86
2023-04-03T03:47:31.375Z,33.50
2023-04-03T03:50:36.246Z,33.83
2023-04-03T03:53:40.870Z,33.83
2023-04-03T03:56:50.403Z,33.89
2023-04-03T03:59:54.522Z,33.59
2023-04-03T04:02:59.638Z,33.49
2023-04-03T04:06:05.510Z,33.62
2023-04-03T04:09:11.872Z,33.67
2023-04-03T04:12:17.710Z,33.32
2023-04-03T04:15:24.855Z,33.29
2023-04-03T04:18:29.306Z,33.52
2023-04-03T04:21:33.570Z,33.17
2023-04-03T04:24:38.642Z,33.25
2023-04-03T04:27:45.668Z,33.34
2023-04-03T04:30:52.206Z,32.63
2023-04-03T04:33:58.609Z,32.60
2023-04-03T04:37:02.683Z,32.58
2023-04-03T04:40:08.372Z,32.52
2023-04-03T04:43:16.074Z,32.26
2023-04-03T04:46:24.250Z,32.28
2023-04-03T04:49:32.816Z,32.61
2023-04-03T04:52:38.167Z,32.48
2023-04-03T04:55:44.760Z,32.08
2023-04-03T04:58:49.421Z,32.08
2023-04-03T05:01:56.577Z,31.82
2023-04-03T05:05:05.172Z,32.27
2023-04-03T05:08:12.538Z,32.07
2023-04-03T05:11:19.468Z,32.10
2023-04-03T05:14:27.012Z,32.05
2023-04-03T05:17:33.955Z,31.52
2023-04-03T05:20:39.384Z,32.01
2023-04-03T05:23:43.887Z,31.42
2023-04-03T05:26:52.083Z,31.28
2023-04-03T05:29:58.127Z,31.42
2023-04-03T05:33:02.709Z,31.66
2023-04-03T05:36:22.521Z,31.54
2023-04-03T05:39:33.481Z,31.48
2023-04-03T05:42:38.838Z,31.34
2023-04-03T05:45:47.023Z,31.09
2023-04-03T05:48:52.629Z,31.00
2023-04-03T05:51:59.532Z,31.21
2023-04-03T05:55:07.502Z,31.40
2023-04-03T05:58:13.013Z,31.29
2023-04-03T06:01:18.212Z,31.29
2023-04-03T06:04:23.388Z,31.14
2023-04-03T06:07:30.186Z,31.08
2023-04-03T06:10:34.652Z,31.00
2023-04-03T06:13:41.801Z,31.12
2023-04-03T06:16:48.921Z,31.46
2023-04-03T06:19:52.981Z,31.63
2023-04-03T06:22:57.440Z,32.38
2023-04-03T06:26:02.426Z,32.22
2023-04-03T06:29:06.276Z,31.99
2023-04-03T06:32:09.968Z,32.30
2023-04-03T06:35:17.794Z,32.48
2023-04-03T06:38:22.146Z,31.99
2023-04-03T06:41:27.442Z,32.32
2023-04-03T06:44:31.533Z,32.30
2023-04-03T06:47:35.727Z,32.25
2023-04-03T06:50:40.209Z,32.36
2023-04-03T06:53:44.572Z,32.04
2023-04-03T06:56:48.816Z,32.47
2023-04-03T06:59:53.308Z,32.26
2023-04-03T07:02:58.568Z,32.39
2023-04-03T07:06:03.291Z,32.87
2023-04-03T07:09:08.008Z,33.44
2023-04-03T07:12:12.726Z,34.73
2023-04-03T07:15:17.198Z,35.94
2023-04-03T07:18:23.144Z,36.48
2023-04-03T07:21:27.907Z,38.25
2023-04-03T07:24:32.725Z,38.03
2023-04-03T07:27:37.224Z,38.57
2023-04-03T07:30:50.154Z,40.40
2023-04-03T07:33:57.863Z,40.74
2023-04-03T07:37:02.917Z,40.17
2023-04-03T07:40:08.780Z,40.78
2023-04-03T07:43:13.218Z,41.84
2023-04-03T07:46:17.439Z,42.46
2023-04-03T07:49:21.850Z,42.52
2023-04-03T07:52:27.485Z,43.22
2023-04-03T07:55:35.479Z,42.44
2023-04-03T07:58:40.021Z,42.27
2023-04-03T08:01:44.434Z,42.20
2023-04-03T08:04:48.496Z,42.12
2023-04-03T08:07:53.423Z,41.66
2023-04-03T08:11:02.020Z,42.16
2023-04-03T08:14:06.450Z,42.54
2023-04-03T08:17:13.424Z,42.59
2023-04-03T08:20:17.730Z,43.07
2023-04-03T08:23:28.552Z,43.09
2023-04-03T08:26:32.954Z,42.63
2023-04-03T08:29:39.546Z,42.61
2023-04-03T08:32:45.035Z,42.93
2023-04-03T08:35:49.507Z,43.73
2023-04-03T08:38:55.462Z,44.48
2023-04-03T08:42:04.993Z,44.53
2023-04-03T08:45:21.699Z,44.53
2023-04-03T08:48:46.846Z,45.32
2023-04-03T08:51:52.912Z,44.63
2023-04-03T08:55:02.777Z,45.52
2023-04-03T08:58:11.885Z,45.29
2023-04-03T09:01:30.882Z,45.57
2023-04-03T09:04:36.843Z,46.38
2023-04-03T09:07:48.493Z,46.89
2023-04-03T09:11:14.140Z,47.54
2023-04-03T09:14:28.400Z,47.37
2023-04-03T09:17:53.982Z,46.80
2023-04-03T09:21:21.446Z,46.42
2023-04-03T09:24:26.974Z,46.35
2023-04-03T09:27:31.235Z,45.75
2023-04-03T09:30:37.482Z,46.50
2023-04-03T09:33:42.845Z,47.40
2023-04-03T09:36:48.902Z,48.91
2023-04-03T09:39:56.954Z,47.39
2023-04-03T09:43:22.354Z,46.79
2023-04-03T09:46:30.539Z,46.61
2023-04-03T09:49:35.634Z,47.40
2023-04-03T09:52:41.030Z,48.65
2023-04-03T09:55:46.840Z,48.94
2023-04-03T09:59:10.285Z,48.39
2023-04-03T10:02:31.941Z,47.86
2023-04-03T10:05:37.338Z,47.84
2023-04-03T10:08:42.258Z,47.83
2023-04-03T10:12:06.983Z,47.33
2023-04-03T10:15:17.784Z,47.04
2023-04-03T10:18:52.738Z,47.87
2023-04-03T10:22:18.185Z,49.49
2023-04-03T10:25:54.243Z,48.83
2023-04-03T10:29:05.121Z,46.76
2023-04-03T10:32:26.087Z,46.66
2023-04-03T10:36:26.650Z,46.21
2023-04-03T10:40:22.373Z,46.48
2023-04-03T10:43:44.942Z,46.08
2023-04-03T10:46:55.459Z,46.61
2023-04-03T10:50:19.345Z,46.60
2023-04-03T10:53:43.684Z,46.94
2023-04-03T10:57:04.475Z,46.76
2023-04-03T11:00:25.015Z,46.95
2023-04-03T11:03:37.700Z,47.45
2023-04-03T11:06:55.322Z,47.90
2023-04-03T11:10:14.624Z,46.84
2023-04-03T11:13:35.064Z,47.38
2023-04-03T11:16:54.106Z,48.25
2023-04-03T11:20:22.474Z,48.70
2023-04-03T11:23:49.501Z,52.19
2023-04-03T11:26:58.573Z,52.07
2023-04-03T11:30:03.903Z,51.91
2023-04-03T11:33:36.250Z,52.76
2023-04-03T11:36:52.308Z,51.60
2023-04-03T11:40:06.511Z,51.23
2023-04-03T11:43:33.083Z,51.39
2023-04-03T11:46:56.440Z,51.66
2023-04-03T11:50:08.838Z,51.92
2023-04-03T11:53:15.838Z,51.69
2023-04-03T11:56:25.554Z,51.19
2023-04-03T11:59:39.566Z,50.94
2023-04-03T12:02:53.735Z,51.65
2023-04-03T12:06:08.285Z,52.74
2023-04-03T12:09:27.526Z,52.54
2023-04-03T12:12:33.567Z,52.11
2023-04-03T12:15:52.376Z,51.90
2023-04-03T12:19:00.317Z,51.39
2023-04-03T12:22:05.505Z,51.86
2023-04-03T12:25:52.351Z,52.60
2023-04-03T12:28:57.657Z,52.62
2023-04-03T12:32:32.790Z,54.33
2023-04-03T12:35:42.614Z,53.10
2023-04-03T12:39:28.490Z,53.73
2023-04-03T12:43:11.770Z,52.95
2023-04-03T12:46:19.507Z,53.31
2023-04-03T12:49:47.052Z,53.04
2023-04-03T12:52:58.795Z,52.80
2023-04-03T12:56:33.564Z,53.29
2023-04-03T12:59:38.779Z,53.03
2023-04-03T13:02:48.361Z,53.34
2023-04-03T13:05:54.383Z,53.31
2023-04-03T13:09:04.047Z,53.53
2023-04-03T13:12:19.032Z,53.07
2023-04-03T13:15:43.537Z,52.92
2023-04-03T13:18:55.981Z,52.90
2023-04-03T13:22:50.703Z,52.46
2023-04-03T13:25:55.371Z,52.42
2023-04-03T13:29:06.184Z,52.13
2023-04-03T13:32:23.936Z,52.13
2023-04-03T13:35:31.247Z,52.63
2023-04-03T13:38:36.193Z,52.93
2023-04-03T13:41:42.473Z,52.67
2023-04-03T13:44:46.865Z,52.43
2023-04-03T13:47:52.510Z,51.96
2023-04-03T13:51:29.491Z,51.95
2023-04-03T13:54:40.585Z,52.07
2023-04-03T13:57:58.468Z,51.69
2023-04-03T14:01:22.008Z,50.63
2023-04-03T14:04:52.466Z,50.29
2023-04-03T14:07:57.345Z,49.99
2023-04-03T14:11:02.245Z,50.16
2023-04-03T14:14:23.269Z,51.23
2023-04-03T14:17:29.569Z,51.64
2023-04-03T14:20:33.632Z,52.23
2023-04-03T14:23:37.942Z,52.63
2023-04-03T14:26:42.706Z,52.20
2023-04-03T14:29:47.634Z,51.94
2023-04-03T14:32:52.607Z,52.83
2023-04-03T14:35:57.890Z,52.37
2023-04-03T14:39:02.726Z,52.75
2023-04-03T14:42:07.579Z,54.56
2023-04-03T14:45:14.634Z,53.58
2023-04-03T14:48:25.794Z,53.93
2023-04-03T14:51:30.429Z,54.32
2023-04-03T14:54:35.514Z,54.00
2023-04-03T14:57:41.484Z,54.62
2023-04-03T15:00:46.962Z,55.01
2023-04-03T15:03:51.592Z,54.68
2023-04-03T15:06:56.657Z,55.58
2023-04-03T15:10:17.970Z,55.29
2023-04-03T15:13:22.830Z,55.11
2023-04-03T15:16:27.629Z,56.12
2023-04-03T15:19:42.931Z,55.80
2023-04-03T15:22:47.964Z,55.11
2023-04-03T15:25:52.332Z,54.60
2023-04-03T15:28:56.842Z,54.49
2023-04-03T15:32:01.567Z,54.47
2023-04-03T15:35:06.325Z,54.94
2023-04-03T15:38:11.808Z,54.51
2023-04-03T15:41:15.808Z,55.46
2023-04-03T15:44:20.406Z,56.55
2023-04-03T15:47:24.959Z,56.56
2023-04-03T15:50:29.494Z,57.09
2023-04-03T15:53:33.798Z,57.13
2023-04-03T15:56:38.343Z,58.19
2023-04-03T15:59:42.666Z,58.02
2023-04-03T16:02:49.082Z,58.28
2023-04-03T16:05:53.510Z,59.19
2023-04-03T16:08:59.893Z,60.12
2023-04-03T16:12:04.778Z,60.15
2023-04-03T16:15:09.503Z,62.52
2023-04-03T16:18:15.836Z,60.54
2023-04-03T16:21:20.489Z,61.73
2023-04-03T16:24:25.501Z,61.71
2023-04-03T16:27:31.823Z,61.44
2023-04-03T16:30:36.758Z,62.07
2023-04-03T16:33:41.326Z,62.33
2023-04-03T16:36:45.910Z,62.59
2023-04-03T16:39:50.444Z,62.84
2023-04-03T16:42:54.900Z,62.52
2023-04-03T16:46:00.155Z,62.72
2023-04-03T16:49:05.169Z,63.05
2023-04-03T16:52:09.247Z,62.74
2023-04-03T16:55:13.687Z,62.62
2023-04-03T16:58:18.482Z,63.74
2023-04-03T17:01:24.101Z,63.79
2023-04-03T17:04:28.764Z,64.22
2023-04-03T17:07:33.328Z,64.97
2023-04-03T17:10:37.325Z,64.53
2023-04-03T17:13:41.789Z,64.49
2023-04-03T17:16:46.510Z,64.15
2023-04-03T17:19:51.315Z,64.60
2023-04-03T17:22:55.768Z,64.67
2023-04-03T17:25:59.749Z,63.46
2023-04-03T17:29:03.732Z,62.82
2023-04-03T17:32:08.476Z,63.24
2023-04-03T17:35:13.040Z,64.12
2023-04-03T17:38:17.904Z,64.10
2023-04-03T17:41:23.805Z,63.08
2023-04-03T17:44:27.877Z,62.70
2023-04-03T17:47:32.367Z,61.93
2023-04-03T17:50:38.659Z,60.85
2023-04-03T17:53:43.370Z,58.83
2023-04-03T17:56:50.418Z,58.74
2023-04-03T17:59:54.879Z,57.42
2023-04-03T18:02:59.456Z,57.06
2023-04-03T18:06:08.863Z,56.95
2023-04-03T18:09:20.632Z,56.13
2023-04-03T18:12:25.204Z,57.32
2023-04-03T18:15:29.370Z,58.05
2023-04-03T18:18:33.785Z,57.60
2023-04-03T18:21:38.866Z,57.55
2023-04-03T18:24:44.407Z,57.54
2023-04-03T18:27:49.861Z,57.31
2023-04-03T18:30:54.322Z,57.34
2023-04-03T18:33:59.953Z,57.53
2023-04-03T18:37:04.202Z,57.37
2023-04-03T18:40:09.871Z,57.58
2023-04-03T18:43:14.690Z,57.02
2023-04-03T18:46:20.492Z,56.88
2023-04-03T18:49:24.554Z,56.58
2023-04-03T18:52:28.330Z,56.46
2023-04-03T18:55:33.074Z,56.26
2023-04-03T18:58:37.943Z,56.20
2023-04-03T19:01:42.382Z,56.00
2023-04-03T19:04:47.865Z,55.65
2023-04-03T19:07:54.350Z,55.12
2023-04-03T19:10:58.734Z,55.28
2023-04-03T19:14:14.447Z,54.99
2023-04-03T19:17:21.119Z,55.20
2023-04-03T19:20:25.856Z,54.38
2023-04-03T19:23:30.260Z,53.95
2023-04-03T19:26:34.267Z,53.59
2023-04-03T19:29:38.291Z,53.86
2023-04-03T19:32:43.232Z,53.30
2023-04-03T19:35:47.785Z,53.70
2023-04-03T19:38:52.175Z,52.78
2023-04-03T19:41:56.656Z,52.82
2023-04-03T19:45:02.965Z,53.40
2023-04-03T19:48:07.842Z,52.98
2023-04-03T19:51:11.756Z,52.44
2023-04-03T19:54:16.184Z,52.27
2023-04-03T19:57:20.850Z,52.01
2023-04-03T20:00:25.379Z,51.95
2023-04-03T20:03:29.333Z,52.45
2023-04-03T20:06:33.454Z,52.67
2023-04-03T20:09:37.970Z,52.89
2023-04-03T20:12:42.357Z,53.01
2023-04-03T20:15:46.797Z,52.24
2023-04-03T20:18:52.553Z,52.23
2023-04-03T20:21:59.302Z,52.63
2023-04-03T20:25:06.775Z,52.59
2023-04-03T20:28:13.122Z,53.30
2023-04-03T20:31:18.317Z,53.12
2023-04-03T20:34:22.883Z,54.51
2023-04-03T20:37:28.666Z,54.50
2023-04-03T20:40:32.611Z,55.66
2023-04-03T20:43:39.142Z,54.42
2023-04-03T20:49:54.569Z,55.43
2023-04-03T20:52:58.913Z,55.57
2023-04-03T20:56:04.679Z,54.82
2023-04-03T20:59:11.678Z,54.11
2023-04-03T21:02:16.540Z,54.50
2023-04-03T21:05:23.835Z,53.60
2023-04-03T21:09:06.233Z,52.78
2023-04-03T21:12:48.199Z,52.89
2023-04-03T21:16:00.521Z,53.48
2023-04-03T21:19:10.312Z,53.44
2023-04-03T21:22:16.923Z,53.74
2023-04-03T21:25:21.872Z,53.58
2023-04-03T21:28:27.328Z,53.31
2023-04-03T21:32:28.025Z,53.04
2023-04-03T21:35:32.617Z,52.50
2023-04-03T21:38:37.501Z,52.20
2023-04-03T21:41:42.047Z,51.89
2023-04-03T21:44:58.338Z,51.14
2023-04-03T21:48:10.965Z,50.05
2023-04-03T21:51:15.197Z,49.29
2023-04-03T21:54:20.406Z,47.30
2023-04-03T21:57:24.883Z,44.29
2023-04-03T22:00:30.378Z,46.46
2023-04-03T22:03:35.778Z,45.91
2023-04-03T22:06:40.115Z,46.75
2023-04-03T22:09:45.085Z,46.68
2023-04-03T22:12:49.762Z,45.74
2023-04-03T22:15:54.360Z,43.63
2023-04-03T22:19:02.577Z,43.44
2023-04-03T22:22:06.977Z,43.86
2023-04-03T22:25:12.688Z,43.83
2023-04-03T22:28:17.389Z,43.00
2023-04-03T22:31:21.860Z,43.05
2023-04-03T22:34:26.346Z,42.97
2023-04-03T22:37:31.305Z,41.61
2023-04-03T22:40:35.721Z,41.93
2023-04-03T22:43:40.791Z,41.16
2023-04-03T22:46:45.140Z,39.60
2023-04-03T22:49:49.752Z,40.33
2023-04-03T22:52:54.188Z,39.88
2023-04-03T22:56:02.529Z,39.28
2023-04-03T22:59:07.091Z,39.55
2023-04-03T23:02:11.822Z,40.03
2023-04-03T23:05:16.601Z,39.67
2023-04-03T23:08:21.322Z,38.15
2023-04-03T23:11:26.181Z,38.27
2023-04-03T23:14:30.280Z,37.97
2023-04-03T23:17:37.719Z,36.40
2023-04-03T23:20:42.285Z,35.81
2023-04-03T23:23:46.910Z,35.86
2023-04-03T23:26:51.761Z,35.42
2023-04-03T23:29:57.617Z,34.65
2023-04-03T23:33:01.675Z,34.89
2023-04-03T23:36:09.690Z,35.17
2023-04-03T23:39:13.576Z,33.96
2023-04-03T23:42:18.289Z,32.88
2023-04-03T23:45:22.213Z,32.57
2023-04-03T23:48:26.014Z,32.39
2023-04-03T23:51:30.241Z,32.06
2023-04-03T23:54:34.637Z,31.66
2023-04-03T23:57:38.944Z,31.57
